Santiago de Compostela

Airport
ICAO code: 
LEST
Summary
ICAO Region: 
EUR
Territory: 
Location: 
Lavacolla,
Coordinates: 
Aerial View: 
42° 53' 51.238" N, 8° 25' 13.663" W
Metar
Observation
LEST 011200Z 30006KT 260V330 9000 FEW005 BKN022 BKN032 10/09 Q1022 NOSIG
Station
Santiago / Labacolla
Date/Time
2021-12-01 12:00:00
Wind direction
300°
Wind speed
06 kts
Lowest cloud amount
few clouds
Temperature
10°C
Dew point
9°C
Humidity
93%
QNH
1022 hPa
Weather condition
n/a

Description

Santiago de Compostela Airport is one of the three international airports in Galicia, Spain. It is located in Lavacolla, a town 16 km from Galicia's capital city, Santiago de Compostela.

Climatology

Dry-summer subtropical ”Mediterranean" climate (Köppen climate classification Csa) - characterized by hot, dry summers and mild winters. During the summer, subtropical high pressure cells dominate, making rainfall unlikely except for the occasional thunderstorm. In the winter, periodic storms bring rain (snow at higher elevations).

Runways

Designator Length Width Surface Rops
17/35 3200 45 ASP Yes/Yes
Airport map: 
Aerial View: 

Accidents and Serious Incidents at or in the vicinity of LEST

SKYbrary Partners:

Safety knowledge contributed by: